Time;durP1;ratioP1;P1;durP2;ratioP2;P2;SDS_P1;SDS_P2;PMS_P1;PMS_P2;Temp;Humidity;BMP_temperature;BMP_pressure;BME280_temperature;BME280_humidity;BME280_pressure;Samples;Min_cycle;Max_cycle;Signal;HPM_P1;HPM_P2
2023/03/20 00:03:18;;;;;;;32.6;16.5;;;;;;;6.5;66.5;98760;;;;
2023/03/20 00:14:18;;;;;;;32.6;16.5;;;;;;;6.2;67;98760;;;;
2023/03/20 00:24:18;;;;;;;32.6;16.5;;;;;;;6;67.1;98760;;;;
2023/03/20 00:34:18;;;;;;;27.3;16.9;;;;;;;5.9;67.1;98750;;;;
2023/03/20 00:44:18;;;;;;;27.3;16.9;;;;;;;5.9;67.3;98740;;;;
2023/03/20 00:55:18;;;;;;;27.3;16.9;;;;;;;5.9;67.1;98740;;;;
2023/03/20 01:06:18;;;;;;;21.2;12.5;;;;;;;5.7;67.3;98740;;;;
2023/03/20 01:17:18;;;;;;;21.2;12.5;;;;;;;5.6;67.5;98730;;;;
2023/03/20 01:27:18;;;;;;;21.2;12.5;;;;;;;5.3;67.9;98730;;;;
2023/03/20 01:38:18;;;;;;;19.9;11.6;;;;;;;5.1;67.9;98730;;;;
2023/03/20 01:48:18;;;;;;;19.9;11.6;;;;;;;4.9;69;98740;;;;
2023/03/20 01:58:18;;;;;;;19.9;11.6;;;;;;;4.7;69.6;98730;;;;
2023/03/20 02:09:18;;;;;;;27.3;16.2;;;;;;;4.6;70.9;98730;;;;
2023/03/20 02:20:18;;;;;;;27.3;16.2;;;;;;;4.5;71.1;98730;;;;
2023/03/20 02:31:18;;;;;;;26.5;16.4;;;;;;;4.5;72;98740;;;;
2023/03/20 02:41:19;;;;;;;26.5;16.4;;;;;;;4.4;72.8;98740;;;;
2023/03/20 02:52:18;;;;;;;26.5;16.4;;;;;;;4.4;72.5;98730;;;;
2023/03/20 03:02:18;;;;;;;21.4;14.1;;;;;;;4.5;71.7;98710;;;;
2023/03/20 03:13:18;;;;;;;21.4;14.1;;;;;;;4.5;71.8;98710;;;;
2023/03/20 03:23:18;;;;;;;21.4;14.1;;;;;;;4.4;72.4;98710;;;;
2023/03/20 03:34:18;;;;;;;20.4;12.7;;;;;;;4.4;72.5;98710;;;;
2023/03/20 03:44:18;;;;;;;20.4;12.7;;;;;;;4.3;72.7;98710;;;;
2023/03/20 03:54:18;;;;;;;20.4;12.7;;;;;;;4.2;72.9;98710;;;;
2023/03/20 04:05:18;;;;;;;27.9;17.1;;;;;;;4.1;73.5;98700;;;;
2023/03/20 04:16:18;;;;;;;27.9;17.1;;;;;;;3.9;74.2;98720;;;;
2023/03/20 04:26:18;;;;;;;27.9;17.1;;;;;;;3.9;74.4;98710;;;;
2023/03/20 04:37:18;;;;;;;30.4;18.7;;;;;;;3.9;74.5;98720;;;;
2023/03/20 04:47:18;;;;;;;30.4;18.7;;;;;;;4;74.5;98720;;;;
2023/03/20 04:58:18;;;;;;;30.4;18.7;;;;;;;4.1;74.3;98720;;;;
2023/03/20 05:09:18;;;;;;;28.9;18.5;;;;;;;4.2;74.2;98730;;;;
2023/03/20 05:19:18;;;;;;;28.9;18.5;;;;;;;4.4;73.8;98730;;;;
2023/03/20 05:30:18;;;;;;;20.6;12.2;;;;;;;4.8;73.6;98740;;;;
2023/03/20 05:40:19;;;;;;;20.6;12.2;;;;;;;5;73.5;98740;;;;
2023/03/20 05:51:18;;;;;;;20.6;12.2;;;;;;;5.4;72.3;98750;;;;
2023/03/20 06:01:20;;;;;;;17.3;9.9;;;;;;;5.8;71.2;98750;;;;
2023/03/20 06:12:18;;;;;;;17.3;9.9;;;;;;;5.8;71.6;98750;;;;
2023/03/20 06:22:18;;;;;;;17.3;9.9;;;;;;;5.7;71.6;98760;;;;
2023/03/20 06:33:18;;;;;;;34.7;21.6;;;;;;;6;72.1;98770;;;;
2023/03/20 06:43:18;;;;;;;34.7;21.6;;;;;;;6.6;70.9;98780;;;;
2023/03/20 06:54:18;;;;;;;34.7;21.6;;;;;;;7.4;68.7;98790;;;;
2023/03/20 07:04:18;;;;;;;40.3;27.4;;;;;;;7.7;67.8;98800;;;;
2023/03/20 07:15:18;;;;;;;40.3;27.4;;;;;;;8.6;65.5;98800;;;;
2023/03/20 07:25:18;;;;;;;40.3;27.4;;;;;;;9.6;63.3;98790;;;;
2023/03/20 07:36:18;;;;;;;29.7;25.5;;;;;;;10.3;61;98790;;;;
2023/03/20 07:46:18;;;;;;;29.7;25.5;;;;;;;10.7;60.3;98800;;;;
2023/03/20 07:56:18;;;;;;;29.7;25.5;;;;;;;11.2;59.2;98790;;;;
2023/03/20 08:07:18;;;;;;;30.2;22.3;;;;;;;11.4;58.1;98800;;;;
2023/03/20 08:17:18;;;;;;;30.2;22.3;;;;;;;11.6;58.1;98800;;;;
2023/03/20 08:28:18;;;;;;;30.2;22.3;;;;;;;11.9;57.7;98800;;;;
2023/03/20 08:38:18;;;;;;;27.8;19.3;;;;;;;12.3;57;98810;;;;
2023/03/20 08:49:18;;;;;;;27.8;19.3;;;;;;;12;57.2;98800;;;;
2023/03/20 09:00:19;;;;;;;23.9;20.3;;;;;;;12.5;58.5;98790;;;;
2023/03/20 09:11:18;;;;;;;23.9;20.3;;;;;;;13;58.6;98790;;;;
2023/03/20 09:22:18;;;;;;;23.9;20.3;;;;;;;13.6;54.8;98790;;;;
2023/03/20 09:32:18;;;;;;;22.7;19.9;;;;;;;14.3;54.9;98790;;;;
2023/03/20 09:42:18;;;;;;;22.7;19.9;;;;;;;14.2;54.8;98800;;;;
2023/03/20 09:52:19;;;;;;;22.7;19.9;;;;;;;14.6;54.2;98800;;;;
2023/03/20 10:02:23;;;;;;;22.9;18.4;;;;;;;15;55.7;98800;;;;
2023/03/20 10:12:19;;;;;;;22.9;18.4;;;;;;;15;56.1;98800;;;;
2023/03/20 10:23:18;;;;;;;22.9;18.4;;;;;;;15.2;58.2;98790;;;;
2023/03/20 10:33:23;;;;;;;21;16.9;;;;;;;15.6;58.1;98780;;;;
2023/03/20 10:44:18;;;;;;;21;16.9;;;;;;;15.8;57.7;98770;;;;
2023/03/20 10:55:18;;;;;;;21;16.9;;;;;;;16;58.7;98770;;;;
2023/03/20 11:06:18;;;;;;;24.4;19.4;;;;;;;15.6;58.5;98770;;;;
2023/03/20 11:16:18;;;;;;;24.4;19.4;;;;;;;15.4;58.6;98760;;;;
2023/03/20 11:27:18;;;;;;;24.4;19.4;;;;;;;15.3;58.9;98750;;;;
2023/03/20 11:37:18;;;;;;;21.8;18.2;;;;;;;14.4;64;98760;;;;
2023/03/20 11:47:18;;;;;;;21.8;18.2;;;;;;;14.7;64.8;98760;;;;
2023/03/20 11:58:18;;;;;;;23.8;17.8;;;;;;;14.8;64.3;98750;;;;
2023/03/20 12:09:18;;;;;;;23.8;17.8;;;;;;;15;64.5;98740;;;;
2023/03/20 12:19:18;;;;;;;23.8;17.8;;;;;;;14.7;64.7;98730;;;;
2023/03/20 12:29:18;;;;;;;27.1;20;;;;;;;15.2;64.2;98730;;;;
2023/03/20 12:39:18;;;;;;;27.1;20;;;;;;;15.4;63.7;98730;;;;
2023/03/20 12:50:19;;;;;;;27.1;20;;;;;;;15.5;63.5;98720;;;;
2023/03/20 13:01:18;;;;;;;21.5;16.8;;;;;;;15.6;63.3;98720;;;;
2023/03/20 13:11:18;;;;;;;21.5;16.8;;;;;;;15.4;64.7;98720;;;;
2023/03/20 13:22:18;;;;;;;21.5;16.8;;;;;;;15.1;64.6;98710;;;;
2023/03/20 13:33:18;;;;;;;22.7;18.6;;;;;;;15.1;64.7;98700;;;;
2023/03/20 13:43:18;;;;;;;22.7;18.6;;;;;;;15.2;65.5;98700;;;;
2023/03/20 13:53:18;;;;;;;22.7;18.6;;;;;;;15.8;62.3;98690;;;;
2023/03/20 14:04:18;;;;;;;17.6;14.7;;;;;;;16.4;60;98680;;;;
2023/03/20 14:14:18;;;;;;;17.6;14.7;;;;;;;15.8;58.9;98680;;;;
2023/03/20 14:25:18;;;;;;;17.6;14.7;;;;;;;15.3;60.6;98680;;;;
2023/03/20 14:35:18;;;;;;;17.1;13;;;;;;;14.7;63.2;98680;;;;
2023/03/20 14:45:18;;;;;;;17.1;13;;;;;;;14.4;64.4;98690;;;;
2023/03/20 14:55:18;;;;;;;17.1;13;;;;;;;14.2;65.3;98680;;;;
2023/03/20 15:05:18;;;;;;;25.4;21.3;;;;;;;14.2;65.8;98680;;;;
2023/03/20 15:16:18;;;;;;;25.4;21.3;;;;;;;14.3;65.8;98680;;;;
2023/03/20 15:26:18;;;;;;;25.4;21.3;;;;;;;14.2;65.9;98680;;;;
2023/03/20 15:36:18;;;;;;;28.6;23.1;;;;;;;14;66.2;98680;;;;
2023/03/20 15:46:19;;;;;;;28.6;23.1;;;;;;;13.9;66.8;98690;;;;
2023/03/20 15:57:19;;;;;;;28.6;23.1;;;;;;;13.8;67.5;98690;;;;
2023/03/20 16:08:18;;;;;;;24.7;20.2;;;;;;;13.6;68.4;98690;;;;
2023/03/20 16:19:18;;;;;;;24.7;20.2;;;;;;;13.4;69;98700;;;;
2023/03/20 16:30:18;;;;;;;29.1;24;;;;;;;13.3;69.1;98700;;;;
2023/03/20 16:40:18;;;;;;;29.1;24;;;;;;;13.2;69.5;98700;;;;
2023/03/20 16:50:19;;;;;;;29.1;24;;;;;;;13;69.8;98710;;;;
2023/03/20 17:00:19;;;;;;;30;25.6;;;;;;;12.8;70.1;98700;;;;
2023/03/20 17:10:19;;;;;;;30;25.6;;;;;;;12.6;69.7;98710;;;;
2023/03/20 17:21:19;;;;;;;30;25.6;;;;;;;12.3;72.7;98700;;;;
2023/03/20 17:31:19;;;;;;;37.8;31.2;;;;;;;12.2;73.8;98720;;;;
2023/03/20 17:41:18;;;;;;;37.8;31.2;;;;;;;12;75.1;98720;;;;
2023/03/20 17:51:18;;;;;;;37.8;31.2;;;;;;;11.8;76.2;98720;;;;
2023/03/20 18:02:19;;;;;;;34.8;29;;;;;;;11.4;75.2;98720;;;;
2023/03/20 18:13:19;;;;;;;34.8;29;;;;;;;11;75.2;98710;;;;
2023/03/20 18:24:19;;;;;;;34.8;29;;;;;;;10.4;75.3;98720;;;;
2023/03/20 18:34:19;;;;;;;45.2;36.5;;;;;;;10;76;98730;;;;
2023/03/20 18:44:18;;;;;;;45.2;36.5;;;;;;;9.7;76.8;98730;;;;
2023/03/20 18:54:19;;;;;;;45.2;36.5;;;;;;;9.4;77.9;98740;;;;
2023/03/20 19:04:19;;;;;;;43.1;32.4;;;;;;;9.2;79.8;98730;;;;
2023/03/20 19:14:19;;;;;;;43.1;32.4;;;;;;;9.1;80.3;98740;;;;
2023/03/20 19:25:19;;;;;;;43.1;32.4;;;;;;;9;80.4;98740;;;;
2023/03/20 19:36:18;;;;;;;46.9;33.4;;;;;;;8.9;80.8;98740;;;;
2023/03/20 19:47:18;;;;;;;46.9;33.4;;;;;;;8.8;81.6;98740;;;;
2023/03/20 19:57:19;;;;;;;46.9;33.4;;;;;;;8.8;81.9;98740;;;;
2023/03/20 20:08:19;;;;;;;59.8;39.3;;;;;;;8.9;82.9;98720;;;;
2023/03/20 20:18:19;;;;;;;59.8;39.3;;;;;;;9.1;83.2;98720;;;;
2023/03/20 20:29:19;;;;;;;59.1;43.8;;;;;;;9.2;83.2;98710;;;;
2023/03/20 20:39:19;;;;;;;59.1;43.8;;;;;;;9.3;83;98720;;;;
2023/03/20 20:50:19;;;;;;;59.1;43.8;;;;;;;9.4;82.4;98720;;;;
2023/03/20 21:00:20;;;;;;;55.6;43.7;;;;;;;9.5;82.1;98720;;;;
2023/03/20 21:11:19;;;;;;;55.6;43.7;;;;;;;9.5;81.9;98730;;;;
2023/03/20 21:21:19;;;;;;;55.6;43.7;;;;;;;9.5;82.9;98730;;;;
2023/03/20 21:31:19;;;;;;;53.3;43.2;;;;;;;9.6;83.2;98740;;;;
2023/03/20 21:41:19;;;;;;;53.3;43.2;;;;;;;9.6;83.4;98740;;;;
2023/03/20 21:52:19;;;;;;;53.3;43.2;;;;;;;9.6;83.4;98750;;;;
2023/03/20 22:03:19;;;;;;;69.3;49.6;;;;;;;9.7;83.1;98750;;;;
2023/03/20 22:14:19;;;;;;;69.3;49.6;;;;;;;9.8;82.8;98750;;;;
2023/03/20 22:24:19;;;;;;;69.3;49.6;;;;;;;9.8;82.9;98750;;;;
2023/03/20 22:34:19;;;;;;;45.8;36.4;;;;;;;9.9;83.6;98750;;;;
2023/03/20 22:45:19;;;;;;;45.8;36.4;;;;;;;9.9;85.1;98750;;;;
2023/03/20 22:56:20;;;;;;;45.8;36.4;;;;;;;9.9;85.9;98750;;;;
2023/03/20 23:06:19;;;;;;;22.8;18;;;;;;;9.8;86;98740;;;;
2023/03/20 23:16:19;;;;;;;22.8;18;;;;;;;9.8;86.1;98750;;;;
2023/03/20 23:27:19;;;;;;;22.8;18;;;;;;;9.8;86.1;98750;;;;
2023/03/20 23:38:19;;;;;;;21.7;17.6;;;;;;;9.7;86.4;98730;;;;
2023/03/20 23:48:19;;;;;;;21.7;17.6;;;;;;;9.7;86.6;98720;;;;
2023/03/20 23:59:19;;;;;;;21.5;16.5;;;;;;;9.7;86.3;98720;;;;
